Hovedside
METAR-TAF:

METAR-TAF

Lufthavner :

Redmond Municipal Airport (Roberts Field)

Redmond, Oregon, USA

breddegrad: 44-15-15N, lengdegrad: 121-08-59W, høyde over havet: 938 m

Gjeldene værobservasjon

Denne rapporten ble laget for 31 minutter siden, klokken 16:56 UTC
Vind 3 kt fra skiftende retning
Temperatur 9°C
Luftfuktighet 43%
Trykk 1026 hPa
Sikt: 16.1 km
Skyfri himmel

METAR: KRDM 171656Z VRB03KT 10SM CLR 09/M03 A3031 RMK AO2 SLP266 T00891028

Tid: 10:27 (17:27 UTC)

Varsel

Denne rapporten ble laget for 6 timer og 7 minutter siden, klokken 11:20 UTC
Varsel gyldig fra 17. klokken 12 UTC til 18. klokken 12 UTC
Vind 5 kt fra skiftende retning
Sikt: 10 km
Skyfri himmel
Fra 17. klokken 2100 UTC
Vind 7 kt fra Nord-nordvest
Sikt: 10 km
Skyfri himmel
Fra 18. klokken 0400 UTC
Vind 4 kt fra skiftende retning
Sikt: 10 km
Skyfri himmel

TAF: KRDM 171120Z 1712/1812 VRB05KT P6SM SKC FM172100 33007KT P6SM SKC FM180400 VRB04KT P6SM SKC

Værobservasjoner og værvarsel for over 4000 flyplasser (METAR- og TAF-rapporter).

Tilgjengelige stasjoner er representert av de røde og gule prikkene på kartet.

Hold musepekeren over prikken for å se navnet på stasjonen.

Klikk så for å se værobservasjoner og -varsler.

For å forandre kartet kan du klikke på den grønne knappen med svart kryss for å zoome inn, på den grønne knappen med strek for å zoome ut, eller på de grønne pilene for å se tilstøtende kart.


METAR-TAF: